sensor_id;sensor_type;location;lat;lon;timestamp;pressure;altitude;pressure_sealevel;temperature;humidity
33414;BME280;60055;41.884;12.534;2023-04-03T00:00:22;100089.44;;;12.93;67.59
33414;BME280;60055;41.884;12.534;2023-04-03T00:02:47;100087.47;;;12.96;67.57
33414;BME280;60055;41.884;12.534;2023-04-03T00:05:12;100088.00;;;12.87;67.88
33414;BME280;60055;41.884;12.534;2023-04-03T00:07:38;100076.44;;;12.88;68.47
33414;BME280;60055;41.884;12.534;2023-04-03T00:10:03;100080.22;;;12.84;68.68
33414;BME280;60055;41.884;12.534;2023-04-03T00:12:29;100070.91;;;12.77;68.77
33414;BME280;60055;41.884;12.534;2023-04-03T00:14:55;100069.63;;;12.84;68.34
33414;BME280;60055;41.884;12.534;2023-04-03T00:17:20;100072.94;;;12.88;68.07
33414;BME280;60055;41.884;12.534;2023-04-03T00:19:45;100071.16;;;12.88;67.91
33414;BME280;60055;41.884;12.534;2023-04-03T00:22:11;100066.38;;;12.79;68.16
33414;BME280;60055;41.884;12.534;2023-04-03T00:24:37;100064.66;;;12.78;67.33
33414;BME280;60055;41.884;12.534;2023-04-03T00:27:02;100067.47;;;12.75;67.27
33414;BME280;60055;41.884;12.534;2023-04-03T00:29:28;100059.00;;;12.68;66.34
33414;BME280;60055;41.884;12.534;2023-04-03T00:31:53;100056.03;;;12.59;66.54
33414;BME280;60055;41.884;12.534;2023-04-03T00:34:19;100058.97;;;12.37;66.78
33414;BME280;60055;41.884;12.534;2023-04-03T00:36:44;100049.50;;;12.49;66.52
33414;BME280;60055;41.884;12.534;2023-04-03T00:39:10;100048.53;;;12.34;66.21
33414;BME280;60055;41.884;12.534;2023-04-03T00:41:35;100045.50;;;12.42;65.95
33414;BME280;60055;41.884;12.534;2023-04-03T00:44:16;100045.41;;;12.43;65.20
33414;BME280;60055;41.884;12.534;2023-04-03T00:46:42;100035.94;;;12.39;65.10
33414;BME280;60055;41.884;12.534;2023-04-03T00:49:08;100032.41;;;12.39;64.81
33414;BME280;60055;41.884;12.534;2023-04-03T00:51:33;100027.19;;;12.37;64.50
33414;BME280;60055;41.884;12.534;2023-04-03T00:54:01;100031.84;;;12.49;63.48
33414;BME280;60055;41.884;12.534;2023-04-03T00:56:28;100021.50;;;12.60;62.83
33414;BME280;60055;41.884;12.534;2023-04-03T00:58:59;100023.97;;;12.48;63.36
33414;BME280;60055;41.884;12.534;2023-04-03T01:01:28;100024.00;;;12.63;62.32
33414;BME280;60055;41.884;12.534;2023-04-03T01:03:54;100026.88;;;12.59;62.32
33414;BME280;60055;41.884;12.534;2023-04-03T01:06:32;100036.19;;;12.66;60.40
33414;BME280;60055;41.884;12.534;2023-04-03T01:08:59;100032.00;;;12.77;61.59
33414;BME280;60055;41.884;12.534;2023-04-03T01:11:25;100021.34;;;12.63;60.42
33414;BME280;60055;41.884;12.534;2023-04-03T01:13:51;100018.94;;;12.59;60.35
33414;BME280;60055;41.884;12.534;2023-04-03T01:16:18;100026.63;;;12.63;59.75
33414;BME280;60055;41.884;12.534;2023-04-03T01:18:45;100015.84;;;12.51;58.93
33414;BME280;60055;41.884;12.534;2023-04-03T01:24:07;100012.03;;;12.56;58.65
33414;BME280;60055;41.884;12.534;2023-04-03T01:26:35;100013.63;;;12.59;58.53
33414;BME280;60055;41.884;12.534;2023-04-03T01:29:01;100013.06;;;12.54;57.92
33414;BME280;60055;41.884;12.534;2023-04-03T01:33:53;100011.25;;;12.39;57.89
33414;BME280;60055;41.884;12.534;2023-04-03T01:36:25;100016.97;;;12.47;57.98
33414;BME280;60055;41.884;12.534;2023-04-03T01:38:52;100008.66;;;12.37;57.64
33414;BME280;60055;41.884;12.534;2023-04-03T01:41:19;100014.56;;;12.42;57.81
33414;BME280;60055;41.884;12.534;2023-04-03T01:43:46;100007.50;;;12.43;57.01
33414;BME280;60055;41.884;12.534;2023-04-03T01:46:16;100004.44;;;12.50;57.65
33414;BME280;60055;41.884;12.534;2023-04-03T01:48:41;100012.63;;;12.46;58.00
33414;BME280;60055;41.884;12.534;2023-04-03T01:51:07;100022.34;;;12.61;57.40
33414;BME280;60055;41.884;12.534;2023-04-03T01:53:32;100007.41;;;12.60;56.46
33414;BME280;60055;41.884;12.534;2023-04-03T01:55:58;100015.72;;;12.54;57.09
33414;BME280;60055;41.884;12.534;2023-04-03T01:58:23;100017.84;;;12.63;57.00
33414;BME280;60055;41.884;12.534;2023-04-03T02:00:49;100016.47;;;12.56;57.31
33414;BME280;60055;41.884;12.534;2023-04-03T02:03:14;100014.91;;;12.52;56.57
33414;BME280;60055;41.884;12.534;2023-04-03T02:05:40;99998.84;;;12.55;57.15
33414;BME280;60055;41.884;12.534;2023-04-03T02:08:05;100004.75;;;12.60;56.69
33414;BME280;60055;41.884;12.534;2023-04-03T02:10:31;100006.03;;;12.53;56.64
33414;BME280;60055;41.884;12.534;2023-04-03T02:12:56;100001.50;;;12.39;56.56
33414;BME280;60055;41.884;12.534;2023-04-03T02:15:21;99999.88;;;12.37;56.79
33414;BME280;60055;41.884;12.534;2023-04-03T02:17:47;100001.56;;;12.38;57.33
33414;BME280;60055;41.884;12.534;2023-04-03T02:20:12;99999.03;;;12.36;56.79
33414;BME280;60055;41.884;12.534;2023-04-03T02:22:38;99990.06;;;12.39;57.61
33414;BME280;60055;41.884;12.534;2023-04-03T02:25:03;99980.84;;;12.46;57.38
33414;BME280;60055;41.884;12.534;2023-04-03T02:27:29;99980.59;;;12.50;56.51
33414;BME280;60055;41.884;12.534;2023-04-03T02:29:54;99985.34;;;12.44;56.96
33414;BME280;60055;41.884;12.534;2023-04-03T02:32:19;99976.56;;;12.43;57.02
33414;BME280;60055;41.884;12.534;2023-04-03T02:34:45;99973.13;;;12.41;57.14
33414;BME280;60055;41.884;12.534;2023-04-03T02:37:10;99978.84;;;12.34;58.09
33414;BME280;60055;41.884;12.534;2023-04-03T02:39:35;99984.94;;;12.36;57.79
33414;BME280;60055;41.884;12.534;2023-04-03T02:42:01;99981.69;;;12.46;57.58
33414;BME280;60055;41.884;12.534;2023-04-03T02:44:26;99979.06;;;12.46;56.91
33414;BME280;60055;41.884;12.534;2023-04-03T02:46:52;99980.22;;;12.41;56.97
33414;BME280;60055;41.884;12.534;2023-04-03T02:49:17;99982.63;;;12.45;56.75
33414;BME280;60055;41.884;12.534;2023-04-03T02:51:43;99970.59;;;12.40;56.94
33414;BME280;60055;41.884;12.534;2023-04-03T02:54:08;99974.94;;;12.41;56.83
33414;BME280;60055;41.884;12.534;2023-04-03T02:56:34;99966.22;;;12.39;57.16
33414;BME280;60055;41.884;12.534;2023-04-03T02:59:00;99975.88;;;12.40;56.89
33414;BME280;60055;41.884;12.534;2023-04-03T03:01:25;99969.47;;;12.44;56.75
33414;BME280;60055;41.884;12.534;2023-04-03T03:03:53;99966.31;;;12.53;57.96
33414;BME280;60055;41.884;12.534;2023-04-03T03:06:19;99966.75;;;12.45;56.89
33414;BME280;60055;41.884;12.534;2023-04-03T03:08:46;99968.03;;;12.54;56.70
33414;BME280;60055;41.884;12.534;2023-04-03T03:11:11;99965.88;;;12.45;56.98
33414;BME280;60055;41.884;12.534;2023-04-03T03:13:37;99962.38;;;12.44;56.48
33414;BME280;60055;41.884;12.534;2023-04-03T03:16:02;99960.59;;;12.45;56.78
33414;BME280;60055;41.884;12.534;2023-04-03T03:18:28;99961.19;;;12.50;56.45
33414;BME280;60055;41.884;12.534;2023-04-03T03:20:56;99959.31;;;12.52;56.64
33414;BME280;60055;41.884;12.534;2023-04-03T03:23:23;99957.59;;;12.51;55.70
33414;BME280;60055;41.884;12.534;2023-04-03T03:25:54;99955.56;;;12.40;56.77
33414;BME280;60055;41.884;12.534;2023-04-03T03:28:19;99943.34;;;12.38;56.76
33414;BME280;60055;41.884;12.534;2023-04-03T03:30:45;99952.13;;;12.22;56.41
33414;BME280;60055;41.884;12.534;2023-04-03T03:33:10;99955.94;;;12.17;56.71
33414;BME280;60055;41.884;12.534;2023-04-03T03:35:35;99956.31;;;12.26;56.32
33414;BME280;60055;41.884;12.534;2023-04-03T03:38:01;99954.00;;;12.20;56.54
33414;BME280;60055;41.884;12.534;2023-04-03T03:40:26;99955.03;;;12.18;56.68
33414;BME280;60055;41.884;12.534;2023-04-03T03:42:51;99954.00;;;12.20;56.58
33414;BME280;60055;41.884;12.534;2023-04-03T03:45:17;99951.97;;;12.10;56.91
33414;BME280;60055;41.884;12.534;2023-04-03T03:47:43;99953.47;;;12.14;56.77
33414;BME280;60055;41.884;12.534;2023-04-03T03:50:10;99960.31;;;12.02;57.18
33414;BME280;60055;41.884;12.534;2023-04-03T03:52:35;99953.63;;;11.95;57.24
33414;BME280;60055;41.884;12.534;2023-04-03T03:55:01;99957.50;;;12.05;57.42
33414;BME280;60055;41.884;12.534;2023-04-03T03:57:26;99957.09;;;12.13;57.10
33414;BME280;60055;41.884;12.534;2023-04-03T03:59:54;99951.50;;;12.02;57.26
33414;BME280;60055;41.884;12.534;2023-04-03T04:02:19;99947.59;;;12.09;57.55
33414;BME280;60055;41.884;12.534;2023-04-03T04:04:45;99952.47;;;12.16;57.00
33414;BME280;60055;41.884;12.534;2023-04-03T04:07:11;99943.00;;;12.12;56.93
33414;BME280;60055;41.884;12.534;2023-04-03T04:09:37;99947.09;;;12.02;57.54
33414;BME280;60055;41.884;12.534;2023-04-03T04:12:03;99941.50;;;11.91;57.12
33414;BME280;60055;41.884;12.534;2023-04-03T04:14:28;99946.88;;;11.90;57.55
33414;BME280;60055;41.884;12.534;2023-04-03T04:16:53;99959.63;;;12.14;57.00
33414;BME280;60055;41.884;12.534;2023-04-03T04:19:19;99943.84;;;12.13;56.94
33414;BME280;60055;41.884;12.534;2023-04-03T04:21:44;99945.75;;;12.26;57.19
33414;BME280;60055;41.884;12.534;2023-04-03T04:24:10;99933.69;;;12.21;57.48
33414;BME280;60055;41.884;12.534;2023-04-03T04:26:36;99943.34;;;12.22;57.11
33414;BME280;60055;41.884;12.534;2023-04-03T04:29:01;99933.50;;;12.24;57.29
33414;BME280;60055;41.884;12.534;2023-04-03T04:31:26;99933.44;;;12.25;57.49
33414;BME280;60055;41.884;12.534;2023-04-03T04:33:52;99941.97;;;12.30;56.77
33414;BME280;60055;41.884;12.534;2023-04-03T04:36:20;99938.47;;;12.14;56.78
33414;BME280;60055;41.884;12.534;2023-04-03T04:38:46;99937.88;;;12.25;57.28
33414;BME280;60055;41.884;12.534;2023-04-03T04:41:12;99942.66;;;12.18;57.43
33414;BME280;60055;41.884;12.534;2023-04-03T04:43:37;99941.28;;;12.11;56.85
33414;BME280;60055;41.884;12.534;2023-04-03T04:46:06;99939.25;;;12.16;58.06
33414;BME280;60055;41.884;12.534;2023-04-03T04:48:33;99938.56;;;12.13;58.05
33414;BME280;60055;41.884;12.534;2023-04-03T04:50:59;99930.63;;;12.28;57.03
33414;BME280;60055;41.884;12.534;2023-04-03T04:53:24;99924.38;;;12.14;57.01
33414;BME280;60055;41.884;12.534;2023-04-03T04:55:49;99918.31;;;12.12;57.03
33414;BME280;60055;41.884;12.534;2023-04-03T04:58:15;99926.59;;;12.21;59.36
33414;BME280;60055;41.884;12.534;2023-04-03T05:00:40;99930.28;;;12.19;56.46
33414;BME280;60055;41.884;12.534;2023-04-03T05:03:06;99932.91;;;12.19;56.38
33414;BME280;60055;41.884;12.534;2023-04-03T05:05:31;99930.38;;;12.33;57.24
33414;BME280;60055;41.884;12.534;2023-04-03T05:07:57;99921.47;;;12.34;56.69
33414;BME280;60055;41.884;12.534;2023-04-03T05:10:22;99924.81;;;12.38;55.85
33414;BME280;60055;41.884;12.534;2023-04-03T05:12:48;99918.53;;;12.70;55.05
33414;BME280;60055;41.884;12.534;2023-04-03T05:15:13;99923.41;;;13.07;54.17
33414;BME280;60055;41.884;12.534;2023-04-03T05:17:38;99919.53;;;13.43;52.87
33414;BME280;60055;41.884;12.534;2023-04-03T05:20:04;99926.19;;;13.64;52.21
33414;BME280;60055;41.884;12.534;2023-04-03T05:22:30;99920.97;;;14.19;51.43
33414;BME280;60055;41.884;12.534;2023-04-03T05:24:55;99922.66;;;14.34;50.92
33414;BME280;60055;41.884;12.534;2023-04-03T05:27:21;99924.66;;;14.57;49.65
33414;BME280;60055;41.884;12.534;2023-04-03T05:29:49;99923.28;;;14.52;50.43
33414;BME280;60055;41.884;12.534;2023-04-03T05:32:15;99920.38;;;14.69;49.40
33414;BME280;60055;41.884;12.534;2023-04-03T05:34:40;99931.31;;;14.50;50.25
33414;BME280;60055;41.884;12.534;2023-04-03T05:37:05;99921.56;;;14.51;50.06
33414;BME280;60055;41.884;12.534;2023-04-03T05:39:31;99925.81;;;14.12;50.50
33414;BME280;60055;41.884;12.534;2023-04-03T05:41:57;99921.69;;;14.76;49.71
33414;BME280;60055;41.884;12.534;2023-04-03T05:44:22;99916.78;;;14.70;49.05
33414;BME280;60055;41.884;12.534;2023-04-03T05:46:47;99913.13;;;14.71;49.13
33414;BME280;60055;41.884;12.534;2023-04-03T05:49:13;99919.69;;;14.53;49.90
33414;BME280;60055;41.884;12.534;2023-04-03T05:51:40;99915.31;;;14.52;50.20
33414;BME280;60055;41.884;12.534;2023-04-03T05:54:16;99918.31;;;14.60;49.84
33414;BME280;60055;41.884;12.534;2023-04-03T05:56:48;99915.06;;;14.69;49.45
33414;BME280;60055;41.884;12.534;2023-04-03T05:59:13;99917.03;;;14.92;49.08
33414;BME280;60055;41.884;12.534;2023-04-03T06:01:39;99920.13;;;14.59;49.52
33414;BME280;60055;41.884;12.534;2023-04-03T06:04:04;99927.97;;;14.34;50.18
33414;BME280;60055;41.884;12.534;2023-04-03T06:06:49;99921.69;;;14.49;50.32
33414;BME280;60055;41.884;12.534;2023-04-03T06:09:17;99918.53;;;14.83;49.52
33414;BME280;60055;41.884;12.534;2023-04-03T06:11:47;99923.19;;;14.80;49.22
33414;BME280;60055;41.884;12.534;2023-04-03T06:14:13;99925.53;;;14.58;49.30
33414;BME280;60055;41.884;12.534;2023-04-03T06:16:39;99925.38;;;14.47;50.49
33414;BME280;60055;41.884;12.534;2023-04-03T06:19:05;99924.34;;;14.76;49.54
33414;BME280;60055;41.884;12.534;2023-04-03T06:21:31;99925.31;;;14.61;49.94
33414;BME280;60055;41.884;12.534;2023-04-03T06:23:56;99934.59;;;14.95;49.29
33414;BME280;60055;41.884;12.534;2023-04-03T06:26:22;99927.38;;;14.97;49.26
33414;BME280;60055;41.884;12.534;2023-04-03T06:28:47;99922.09;;;14.70;49.45
33414;BME280;60055;41.884;12.534;2023-04-03T06:31:14;99929.41;;;15.06;49.23
33414;BME280;60055;41.884;12.534;2023-04-03T06:33:40;99931.34;;;15.16;48.10
33414;BME280;60055;41.884;12.534;2023-04-03T06:36:06;99938.84;;;15.37;48.58
33414;BME280;60055;41.884;12.534;2023-04-03T06:38:33;99936.03;;;15.13;48.52
33414;BME280;60055;41.884;12.534;2023-04-03T06:40:58;99935.97;;;15.40;48.37
33414;BME280;60055;41.884;12.534;2023-04-03T06:43:24;99935.47;;;15.60;47.95
33414;BME280;60055;41.884;12.534;2023-04-03T06:45:50;99930.81;;;15.63;47.59
33414;BME280;60055;41.884;12.534;2023-04-03T06:48:15;99930.75;;;16.14;46.90
33414;BME280;60055;41.884;12.534;2023-04-03T06:50:42;99935.28;;;15.88;46.39
33414;BME280;60055;41.884;12.534;2023-04-03T06:53:08;99938.56;;;15.79;46.80
33414;BME280;60055;41.884;12.534;2023-04-03T06:55:33;99938.78;;;15.76;46.49
33414;BME280;60055;41.884;12.534;2023-04-03T06:57:59;99926.00;;;15.81;47.39
33414;BME280;60055;41.884;12.534;2023-04-03T07:00:24;99930.78;;;15.76;46.62
33414;BME280;60055;41.884;12.534;2023-04-03T07:02:50;99927.09;;;16.27;45.96
33414;BME280;60055;41.884;12.534;2023-04-03T07:05:16;99929.94;;;16.37;45.63
33414;BME280;60055;41.884;12.534;2023-04-03T07:07:42;99928.59;;;16.31;45.07
33414;BME280;60055;41.884;12.534;2023-04-03T07:10:08;99922.19;;;16.70;44.10
33414;BME280;60055;41.884;12.534;2023-04-03T07:12:33;99941.13;;;16.78;44.32
33414;BME280;60055;41.884;12.534;2023-04-03T07:14:59;99943.34;;;16.61;44.27
33414;BME280;60055;41.884;12.534;2023-04-03T07:17:24;99931.66;;;16.98;43.72
33414;BME280;60055;41.884;12.534;2023-04-03T07:19:52;99937.69;;;17.00;41.92
33414;BME280;60055;41.884;12.534;2023-04-03T07:22:17;99929.91;;;16.86;42.63
33414;BME280;60055;41.884;12.534;2023-04-03T07:24:43;99932.28;;;16.42;43.03
33414;BME280;60055;41.884;12.534;2023-04-03T07:27:09;99922.34;;;16.56;42.79
33414;BME280;60055;41.884;12.534;2023-04-03T07:29:35;99928.31;;;16.47;42.48
33414;BME280;60055;41.884;12.534;2023-04-03T07:32:01;99927.56;;;16.81;42.74
33414;BME280;60055;41.884;12.534;2023-04-03T07:34:26;99923.72;;;16.85;42.58
33414;BME280;60055;41.884;12.534;2023-04-03T07:36:52;99913.63;;;16.78;42.72
33414;BME280;60055;41.884;12.534;2023-04-03T07:39:17;99923.38;;;16.54;43.16
33414;BME280;60055;41.884;12.534;2023-04-03T07:41:46;99918.16;;;16.89;42.91
33414;BME280;60055;41.884;12.534;2023-04-03T07:44:12;99927.34;;;16.61;42.46
33414;BME280;60055;41.884;12.534;2023-04-03T07:46:38;99936.19;;;16.61;42.77
33414;BME280;60055;41.884;12.534;2023-04-03T07:49:03;99931.97;;;16.70;43.06
33414;BME280;60055;41.884;12.534;2023-04-03T07:51:29;99929.16;;;16.84;41.97
33414;BME280;60055;41.884;12.534;2023-04-03T07:53:55;99927.56;;;17.05;41.13
33414;BME280;60055;41.884;12.534;2023-04-03T07:56:20;99937.59;;;17.02;41.95
33414;BME280;60055;41.884;12.534;2023-04-03T07:58:46;99937.41;;;17.16;41.49
33414;BME280;60055;41.884;12.534;2023-04-03T08:01:12;99940.03;;;17.05;41.90
33414;BME280;60055;41.884;12.534;2023-04-03T08:03:38;99933.34;;;16.99;41.56
33414;BME280;60055;41.884;12.534;2023-04-03T08:06:06;99931.69;;;17.09;41.90
33414;BME280;60055;41.884;12.534;2023-04-03T08:08:33;99929.81;;;17.22;41.58
33414;BME280;60055;41.884;12.534;2023-04-03T08:11:00;99937.81;;;17.57;40.49
33414;BME280;60055;41.884;12.534;2023-04-03T08:13:25;99935.69;;;17.50;41.08
33414;BME280;60055;41.884;12.534;2023-04-03T08:15:51;99945.47;;;17.73;40.36
33414;BME280;60055;41.884;12.534;2023-04-03T08:18:17;99943.06;;;17.70;40.49
33414;BME280;60055;41.884;12.534;2023-04-03T08:20:45;99934.06;;;17.82;38.85
33414;BME280;60055;41.884;12.534;2023-04-03T08:23:10;99934.81;;;18.06;39.86
33414;BME280;60055;41.884;12.534;2023-04-03T08:25:40;99926.69;;;17.97;39.70
33414;BME280;60055;41.884;12.534;2023-04-03T08:28:06;99937.59;;;18.05;38.70
33414;BME280;60055;41.884;12.534;2023-04-03T08:30:31;99933.00;;;17.96;39.00
33414;BME280;60055;41.884;12.534;2023-04-03T08:32:57;99921.47;;;17.84;38.81
33414;BME280;60055;41.884;12.534;2023-04-03T08:35:22;99931.91;;;17.87;38.15
33414;BME280;60055;41.884;12.534;2023-04-03T08:37:47;99932.03;;;18.08;37.59
33414;BME280;60055;41.884;12.534;2023-04-03T08:40:15;99928.50;;;18.07;38.10
33414;BME280;60055;41.884;12.534;2023-04-03T08:45:10;99922.50;;;18.48;37.54
33414;BME280;60055;41.884;12.534;2023-04-03T08:47:47;99921.28;;;18.52;36.37
33414;BME280;60055;41.884;12.534;2023-04-03T08:50:28;99923.97;;;18.41;36.33
33414;BME280;60055;41.884;12.534;2023-04-03T08:52:59;99911.66;;;18.50;34.93
33414;BME280;60055;41.884;12.534;2023-04-03T08:55:48;99908.38;;;18.68;35.38
33414;BME280;60055;41.884;12.534;2023-04-03T08:58:18;99905.19;;;18.74;35.09
33414;BME280;60055;41.884;12.534;2023-04-03T09:01:00;99904.00;;;18.67;35.65
33414;BME280;60055;41.884;12.534;2023-04-03T09:03:30;99898.81;;;18.44;35.08
33414;BME280;60055;41.884;12.534;2023-04-03T09:06:01;99909.66;;;18.31;36.31
33414;BME280;60055;41.884;12.534;2023-04-03T09:08:30;99910.72;;;18.28;36.26
33414;BME280;60055;41.884;12.534;2023-04-03T09:13:49;99901.84;;;18.39;35.58
33414;BME280;60055;41.884;12.534;2023-04-03T09:22:20;99899.66;;;19.19;33.90
33414;BME280;60055;41.884;12.534;2023-04-03T09:24:52;99906.81;;;18.98;34.14
33414;BME280;60055;41.884;12.534;2023-04-03T09:27:21;99906.72;;;18.88;33.83
33414;BME280;60055;41.884;12.534;2023-04-03T09:29:49;99901.16;;;19.12;33.20
33414;BME280;60055;41.884;12.534;2023-04-03T09:34:45;99900.50;;;19.19;32.16
33414;BME280;60055;41.884;12.534;2023-04-03T09:37:39;99887.56;;;19.04;31.26
33414;BME280;60055;41.884;12.534;2023-04-03T09:40:05;99892.91;;;19.04;31.45
33414;BME280;60055;41.884;12.534;2023-04-03T09:42:32;99884.28;;;19.00;31.18
33414;BME280;60055;41.884;12.534;2023-04-03T09:45:04;99892.06;;;19.03;31.92
33414;BME280;60055;41.884;12.534;2023-04-03T09:47:32;99900.44;;;19.30;31.90
33414;BME280;60055;41.884;12.534;2023-04-03T09:52:50;99888.44;;;19.25;30.60
33414;BME280;60055;41.884;12.534;2023-04-03T09:55:23;99879.94;;;18.99;30.85
33414;BME280;60055;41.884;12.534;2023-04-03T09:57:58;99868.13;;;19.22;30.75
33414;BME280;60055;41.884;12.534;2023-04-03T10:00:31;99874.47;;;19.21;31.43
33414;BME280;60055;41.884;12.534;2023-04-03T10:02:59;99871.84;;;19.31;31.54
33414;BME280;60055;41.884;12.534;2023-04-03T10:05:26;99863.28;;;19.37;30.96
33414;BME280;60055;41.884;12.534;2023-04-03T10:07:52;99868.91;;;19.55;30.72
33414;BME280;60055;41.884;12.534;2023-04-03T10:10:31;99863.28;;;19.37;30.56
33414;BME280;60055;41.884;12.534;2023-04-03T10:13:07;99858.44;;;19.31;30.38
33414;BME280;60055;41.884;12.534;2023-04-03T10:15:50;99853.31;;;19.60;30.41
33414;BME280;60055;41.884;12.534;2023-04-03T10:24:17;99847.22;;;19.58;29.74
33414;BME280;60055;41.884;12.534;2023-04-03T10:32:53;99849.50;;;19.62;29.69
33414;BME280;60055;41.884;12.534;2023-04-03T10:38:29;99829.84;;;19.31;29.92
33414;BME280;60055;41.884;12.534;2023-04-03T10:46:28;99826.06;;;19.55;30.71
33414;BME280;60055;41.884;12.534;2023-04-03T10:51:56;99825.41;;;19.62;29.73
33414;BME280;60055;41.884;12.534;2023-04-03T10:54:49;99816.41;;;19.63;29.85
33414;BME280;60055;41.884;12.534;2023-04-03T10:57:12;99808.16;;;19.55;29.33
33414;BME280;60055;41.884;12.534;2023-04-03T11:05:00;99815.09;;;19.58;29.42
33414;BME280;60055;41.884;12.534;2023-04-03T11:07:32;99804.41;;;19.67;29.80
33414;BME280;60055;41.884;12.534;2023-04-03T11:10:03;99813.91;;;19.81;29.01
33414;BME280;60055;41.884;12.534;2023-04-03T11:12:41;99804.84;;;19.72;28.96
33414;BME280;60055;41.884;12.534;2023-04-03T11:15:12;99795.03;;;19.92;29.48
33414;BME280;60055;41.884;12.534;2023-04-03T11:17:47;99793.34;;;19.91;28.93
33414;BME280;60055;41.884;12.534;2023-04-03T11:20:23;99803.19;;;19.81;28.89
33414;BME280;60055;41.884;12.534;2023-04-03T11:23:45;99795.13;;;19.71;28.82
33414;BME280;60055;41.884;12.534;2023-04-03T11:26:19;99795.03;;;19.82;29.07
33414;BME280;60055;41.884;12.534;2023-04-03T11:28:46;99794.06;;;19.93;29.53
33414;BME280;60055;41.884;12.534;2023-04-03T11:31:24;99792.53;;;19.91;29.25
33414;BME280;60055;41.884;12.534;2023-04-03T11:34:04;99777.41;;;19.80;29.29
33414;BME280;60055;41.884;12.534;2023-04-03T11:36:39;99780.78;;;19.82;29.49
33414;BME280;60055;41.884;12.534;2023-04-03T11:39:23;99777.31;;;19.61;29.43
33414;BME280;60055;41.884;12.534;2023-04-03T11:41:53;99785.81;;;19.66;28.95
33414;BME280;60055;41.884;12.534;2023-04-03T11:44:29;99781.88;;;19.70;29.00
33414;BME280;60055;41.884;12.534;2023-04-03T11:47:00;99779.81;;;19.93;28.54
33414;BME280;60055;41.884;12.534;2023-04-03T11:49:57;99782.31;;;19.84;28.07
33414;BME280;60055;41.884;12.534;2023-04-03T11:58:16;99778.69;;;19.95;28.81
33414;BME280;60055;41.884;12.534;2023-04-03T12:08:46;99759.66;;;19.98;29.30
33414;BME280;60055;41.884;12.534;2023-04-03T12:16:21;99750.38;;;20.21;28.77
33414;BME280;60055;41.884;12.534;2023-04-03T12:48:50;99739.63;;;20.02;27.78
33414;BME280;60055;41.884;12.534;2023-04-03T12:51:35;99730.50;;;20.24;27.13
33414;BME280;60055;41.884;12.534;2023-04-03T12:54:38;99732.84;;;20.08;26.84
33414;BME280;60055;41.884;12.534;2023-04-03T12:59:36;99732.44;;;20.12;27.10
33414;BME280;60055;41.884;12.534;2023-04-03T13:02:02;99733.03;;;20.25;27.09
33414;BME280;60055;41.884;12.534;2023-04-03T13:04:31;99728.06;;;20.02;26.81
33414;BME280;60055;41.884;12.534;2023-04-03T13:06:58;99726.41;;;20.10;26.97
33414;BME280;60055;41.884;12.534;2023-04-03T13:09:26;99725.44;;;20.30;26.56
33414;BME280;60055;41.884;12.534;2023-04-03T13:11:58;99718.94;;;20.33;26.69
33414;BME280;60055;41.884;12.534;2023-04-03T13:14:26;99715.00;;;20.37;26.75
33414;BME280;60055;41.884;12.534;2023-04-03T13:19:38;99724.88;;;20.36;26.12
33414;BME280;60055;41.884;12.534;2023-04-03T13:22:23;99711.69;;;20.14;26.65
33414;BME280;60055;41.884;12.534;2023-04-03T13:24:52;99704.38;;;20.16;27.16
33414;BME280;60055;41.884;12.534;2023-04-03T13:27:19;99694.34;;;19.99;27.11
33414;BME280;60055;41.884;12.534;2023-04-03T13:29:57;99711.88;;;20.13;27.67
33414;BME280;60055;41.884;12.534;2023-04-03T13:32:25;99697.88;;;20.19;27.16
33414;BME280;60055;41.884;12.534;2023-04-03T13:34:51;99696.19;;;20.18;28.00
33414;BME280;60055;41.884;12.534;2023-04-03T13:37:24;99706.97;;;20.27;28.51
33414;BME280;60055;41.884;12.534;2023-04-03T13:42:36;99695.94;;;20.50;27.43
33414;BME280;60055;41.884;12.534;2023-04-03T13:47:46;99698.47;;;20.22;27.16
33414;BME280;60055;41.884;12.534;2023-04-03T13:52:46;99692.41;;;20.20;27.66
33414;BME280;60055;41.884;12.534;2023-04-03T13:55:30;99708.63;;;20.09;28.07
33414;BME280;60055;41.884;12.534;2023-04-03T13:58:03;99693.66;;;20.07;28.04
33414;BME280;60055;41.884;12.534;2023-04-03T14:00:51;99695.34;;;20.08;27.98
33414;BME280;60055;41.884;12.534;2023-04-03T14:03:39;99696.59;;;19.94;28.44
33414;BME280;60055;41.884;12.534;2023-04-03T14:06:05;99692.25;;;20.03;28.34
33414;BME280;60055;41.884;12.534;2023-04-03T14:08:31;99697.88;;;19.90;27.78
33414;BME280;60055;41.884;12.534;2023-04-03T14:10:59;99695.59;;;19.76;27.93
33414;BME280;60055;41.884;12.534;2023-04-03T14:13:25;99698.56;;;19.82;28.09
33414;BME280;60055;41.884;12.534;2023-04-03T14:15:50;99698.41;;;19.84;27.88
33414;BME280;60055;41.884;12.534;2023-04-03T14:18:19;99705.03;;;19.70;27.71
33414;BME280;60055;41.884;12.534;2023-04-03T14:20:45;99692.25;;;19.83;28.14
33414;BME280;60055;41.884;12.534;2023-04-03T14:23:11;99696.75;;;19.83;28.19
33414;BME280;60055;41.884;12.534;2023-04-03T14:25:38;99682.34;;;19.84;28.52
33414;BME280;60055;41.884;12.534;2023-04-03T14:28:18;99684.97;;;19.55;28.14
33414;BME280;60055;41.884;12.534;2023-04-03T14:30:45;99686.47;;;19.38;28.88
33414;BME280;60055;41.884;12.534;2023-04-03T14:33:16;99678.88;;;19.44;29.31
33414;BME280;60055;41.884;12.534;2023-04-03T14:35:44;99687.72;;;19.34;29.05
33414;BME280;60055;41.884;12.534;2023-04-03T14:38:28;99685.34;;;19.41;28.29
33414;BME280;60055;41.884;12.534;2023-04-03T14:40:55;99700.25;;;19.34;28.11
33414;BME280;60055;41.884;12.534;2023-04-03T14:43:21;99685.00;;;19.25;27.71
33414;BME280;60055;41.884;12.534;2023-04-03T14:45:48;99689.41;;;19.35;27.54